Time;durP1;ratioP1;P1;durP2;ratioP2;P2;SDS_P1;SDS_P2;PMS_P1;PMS_P2;Temp;Humidity;BMP_temperature;BMP_pressure;BME280_temperature;BME280_humidity;BME280_pressure;Samples;Min_cycle;Max_cycle;Signal;HPM_P1;HPM_P2
2023/06/15 00:00:24;;;;;;;;;;;16.70;96.30;;;;;;5093875;27;20372;-86
2023/06/15 00:02:50;;;;;;;;;;;16.70;96.80;;;;;;5096067;27;19923;-87
2023/06/15 00:05:16;;;;;;;;;;;16.60;96.80;;;;;;5105313;28;19935;-86
2023/06/15 00:07:42;;;;;;;;;;;16.60;97.00;;;;;;5085281;28;19950;-86
2023/06/15 00:10:08;;;;;;;;;;;16.60;96.30;;;;;;5085713;28;19930;-87
2023/06/15 00:12:34;;;;;;;;;;;16.60;97.10;;;;;;5106923;28;19931;-87
2023/06/15 00:15:00;;;;;;;;;;;16.50;97.10;;;;;;5068326;28;20027;-86
2023/06/15 00:17:26;;;;;;;;;;;16.60;96.60;;;;;;5109758;28;19963;-86
2023/06/15 00:19:53;;;;;;;;;;;16.50;97.40;;;;;;5088863;28;19923;-86
2023/06/15 00:22:21;;;;;;;;;;;16.40;97.50;;;;;;5113324;28;20023;-86
2023/06/15 00:24:47;;;;;;;;;;;16.40;97.60;;;;;;5103921;28;20371;-86
2023/06/15 00:27:12;;;;;;;;;;;16.40;97.70;;;;;;5092293;28;20019;-87
2023/06/15 00:29:38;;;;;;;;;;;16.40;97.30;;;;;;5073583;28;20257;-86
2023/06/15 00:32:06;;;;;;;;;;;16.40;97.60;;;;;;5108640;28;19946;-87
2023/06/15 00:34:32;;;;;;;;;;;16.30;98.80;;;;;;5082984;28;19967;-86
2023/06/15 00:36:58;;;;;;;;;;;16.30;98.70;;;;;;5073319;28;19967;-87
2023/06/15 00:39:23;;;;;;;;;;;16.30;98.00;;;;;;5108319;28;19977;-86
2023/06/15 00:41:49;;;;;;;;;;;16.40;98.20;;;;;;5113621;28;20268;-86
2023/06/15 00:44:15;;;;;;;;;;;16.30;98.80;;;;;;5095874;28;19930;-86
2023/06/15 00:46:41;;;;;;;;;;;16.30;98.50;;;;;;5088279;28;19935;-86
2023/06/15 00:49:07;;;;;;;;;;;16.30;98.70;;;;;;5092694;28;19923;-86
2023/06/15 00:51:34;;;;;;;;;;;16.30;99.40;;;;;;5099549;28;19993;-86
2023/06/15 00:54:00;;;;;;;;;;;16.20;99.20;;;;;;5087698;28;19924;-86
2023/06/15 00:56:29;;;;;;;;;;;16.20;99.50;;;;;;5102406;28;19928;-86
2023/06/15 00:58:56;;;;;;;;;;;16.20;99.20;;;;;;5114056;28;19975;-87
2023/06/15 01:01:23;;;;;;;;;;;16.30;99.70;;;;;;5091725;28;19932;-86
2023/06/15 01:03:49;;;;;;;;;;;16.20;99.90;;;;;;5111980;27;19924;-87
2023/06/15 01:06:15;;;;;;;;;;;16.20;99.90;;;;;;5088870;28;19931;-87
2023/06/15 01:08:42;;;;;;;;;;;16.10;99.90;;;;;;5096036;28;19931;-86
2023/06/15 01:11:07;;;;;;;;;;;16.10;99.90;;;;;;5115107;28;19931;-86
2023/06/15 01:13:33;;;;;;;;;;;16.10;99.90;;;;;;5097075;28;19928;-86
2023/06/15 01:16:00;;;;;;;;;;;16.10;99.90;;;;;;5105782;27;19934;-86
2023/06/15 01:18:29;;;;;;;;;;;16.10;99.90;;;;;;5097790;28;19932;-86
2023/06/15 01:20:56;;;;;;;;;;;16.10;99.90;;;;;;5099694;27;19928;-86
2023/06/15 01:23:49;;;;;;;;;;;16.00;99.90;;;;;;5117510;27;20397;-86
2023/06/15 01:26:16;;;;;;;;;;;16.00;99.90;;;;;;5077391;28;19924;-86
2023/06/15 01:28:45;;;;;;;;;;;16.00;99.90;;;;;;5108323;28;20388;-86
2023/06/15 01:31:11;;;;;;;;;;;16.00;99.90;;;;;;5095421;28;19925;-87
2023/06/15 01:33:46;;;;;;;;;;;15.90;99.90;;;;;;5111178;28;19924;-86
2023/06/15 01:36:12;;;;;;;;;;;15.90;99.90;;;;;;5122704;27;19924;-86
2023/06/15 01:38:38;;;;;;;;;;;15.90;99.90;;;;;;5090339;28;19928;-86
2023/06/15 01:41:04;;;;;;;;;;;15.80;99.90;;;;;;5115657;28;20003;-86
2023/06/15 01:43:31;;;;;;;;;;;15.80;99.90;;;;;;5099965;27;19946;-86
2023/06/15 01:45:57;;;;;;;;;;;15.80;99.90;;;;;;5111415;27;20252;-86
2023/06/15 01:48:25;;;;;;;;;;;15.80;99.90;;;;;;5110302;27;19928;-86
2023/06/15 01:50:51;;;;;;;;;;;15.70;99.90;;;;;;5110643;27;19924;-86
2023/06/15 01:53:17;;;;;;;;;;;15.70;99.90;;;;;;5084366;28;20342;-86
2023/06/15 01:55:42;;;;;;;;;;;15.70;99.90;;;;;;5091831;28;19928;-87
2023/06/15 01:58:08;;;;;;;;;;;15.70;99.90;;;;;;5115296;28;19923;-86
2023/06/15 02:00:34;;;;;;;;;;;15.60;99.90;;;;;;5076093;28;19928;-86
2023/06/15 02:03:01;;;;;;;;;;;15.60;99.90;;;;;;5109097;28;19924;-86
2023/06/15 02:05:28;;;;;;;;;;;15.50;99.90;;;;;;5110646;28;19938;-86
2023/06/15 02:07:53;;;;;;;;;;;15.50;99.90;;;;;;5106891;27;19969;-86
2023/06/15 02:10:19;;;;;;;;;;;15.50;99.90;;;;;;5114734;28;19928;-86
2023/06/15 02:12:45;;;;;;;;;;;15.50;99.90;;;;;;5115056;28;20014;-86
2023/06/15 02:15:10;;;;;;;;;;;15.40;99.90;;;;;;5100297;28;19951;-86
2023/06/15 02:17:39;;;;;;;;;;;15.30;99.90;;;;;;5086035;28;19975;-86
2023/06/15 02:20:09;;;;;;;;;;;15.30;99.90;;;;;;5111185;28;19970;-86
2023/06/15 02:22:36;;;;;;;;;;;15.30;99.90;;;;;;5116053;27;20002;-86
2023/06/15 02:25:01;;;;;;;;;;;15.20;99.90;;;;;;5098359;28;20015;-85
2023/06/15 02:27:27;;;;;;;;;;;15.20;99.90;;;;;;5103933;28;19971;-86
2023/06/15 02:29:52;;;;;;;;;;;15.10;99.90;;;;;;5115134;28;19924;-86
2023/06/15 02:32:28;;;;;;;;;;;15.00;99.90;;;;;;5110999;28;19928;-86
2023/06/15 02:34:56;;;;;;;;;;;14.80;99.90;;;;;;5117736;27;20313;-86
2023/06/15 02:37:21;;;;;;;;;;;14.60;99.90;;;;;;5082844;28;19935;-86
2023/06/15 02:39:47;;;;;;;;;;;14.40;99.90;;;;;;5107020;28;19976;-87
2023/06/15 02:42:13;;;;;;;;;;;14.20;99.90;;;;;;5123438;27;19924;-88
2023/06/15 02:44:38;;;;;;;;;;;14.10;99.90;;;;;;5115516;27;19931;-86
2023/06/15 02:47:05;;;;;;;;;;;14.00;99.90;;;;;;5083467;28;19934;-87
2023/06/15 02:49:33;;;;;;;;;;;13.90;99.90;;;;;;5100373;27;19972;-86
2023/06/15 02:51:59;;;;;;;;;;;13.80;99.90;;;;;;5106938;28;19928;-86
2023/06/15 02:54:31;;;;;;;;;;;13.80;99.90;;;;;;5099258;27;19924;-86
2023/06/15 02:56:57;;;;;;;;;;;13.80;99.90;;;;;;5099529;28;19924;-86
2023/06/15 02:59:25;;;;;;;;;;;13.80;99.90;;;;;;5095286;28;19924;-84
2023/06/15 03:01:52;;;;;;;;;;;13.80;99.90;;;;;;5103048;28;19924;-87
2023/06/15 03:04:21;;;;;;;;;;;13.70;99.90;;;;;;5122220;27;19924;-88
2023/06/15 03:06:49;;;;;;;;;;;13.80;99.90;;;;;;5113610;27;19924;-87
2023/06/15 03:09:18;;;;;;;;;;;13.80;99.90;;;;;;5101128;28;20340;-86
2023/06/15 03:11:44;;;;;;;;;;;13.70;99.90;;;;;;5093774;28;19924;-87
2023/06/15 03:14:12;;;;;;;;;;;13.70;99.90;;;;;;5114163;27;20378;-86
2023/06/15 03:16:46;;;;;;;;;;;13.60;99.90;;;;;;5099591;27;19979;-87
2023/06/15 03:19:15;;;;;;;;;;;13.60;99.90;;;;;;5099981;27;19931;-87
2023/06/15 03:21:41;;;;;;;;;;;13.60;99.90;;;;;;5113632;27;20382;-87
2023/06/15 03:24:08;;;;;;;;;;;13.60;99.90;;;;;;5120680;27;20383;-87
2023/06/15 03:26:37;;;;;;;;;;;13.60;99.90;;;;;;5114248;27;20401;-86
2023/06/15 03:29:06;;;;;;;;;;;13.60;99.90;;;;;;5117319;27;19924;-87
2023/06/15 03:31:33;;;;;;;;;;;13.50;99.90;;;;;;5094638;28;19924;-86
2023/06/15 03:33:59;;;;;;;;;;;13.70;99.90;;;;;;5112551;27;19928;-86
2023/06/15 03:36:29;;;;;;;;;;;13.80;99.90;;;;;;5107359;27;19923;-87
2023/06/15 03:38:58;;;;;;;;;;;13.90;99.90;;;;;;5081558;28;19923;-87
2023/06/15 03:41:24;;;;;;;;;;;13.90;99.90;;;;;;5110118;28;20016;-87
2023/06/15 03:43:49;;;;;;;;;;;14.00;99.90;;;;;;5109510;27;19931;-87
2023/06/15 03:46:15;;;;;;;;;;;14.00;99.90;;;;;;5118523;27;19928;-86
2023/06/15 03:48:41;;;;;;;;;;;14.00;99.90;;;;;;5114534;27;19939;-87
2023/06/15 03:51:06;;;;;;;;;;;14.00;99.90;;;;;;5110204;27;19931;-87
2023/06/15 03:53:32;;;;;;;;;;;14.00;99.90;;;;;;5099237;28;19945;-87
2023/06/15 03:56:03;;;;;;;;;;;13.90;99.90;;;;;;5092811;28;19924;-87
2023/06/15 03:58:28;;;;;;;;;;;13.80;99.90;;;;;;5081268;27;20019;-86
2023/06/15 04:00:56;;;;;;;;;;;13.80;99.90;;;;;;5110158;27;19970;-87
2023/06/15 04:03:24;;;;;;;;;;;13.90;99.90;;;;;;5104261;27;19931;-87
2023/06/15 04:05:49;;;;;;;;;;;13.90;99.90;;;;;;5099025;27;19939;-87
2023/06/15 04:08:15;;;;;;;;;;;14.00;99.90;;;;;;5119729;27;19927;-87
2023/06/15 04:10:40;;;;;;;;;;;14.00;99.90;;;;;;5127673;27;19924;-87
2023/06/15 04:13:06;;;;;;;;;;;14.00;99.90;;;;;;5120756;27;19994;-87
2023/06/15 04:15:32;;;;;;;;;;;14.00;99.90;;;;;;5107167;27;19931;-87
2023/06/15 04:18:00;;;;;;;;;;;13.90;99.90;;;;;;5116928;27;20011;-87
2023/06/15 04:20:30;;;;;;;;;;;13.90;99.90;;;;;;5107138;28;19928;-87
2023/06/15 04:22:58;;;;;;;;;;;13.80;99.90;;;;;;5099673;27;19928;-87
2023/06/15 04:25:27;;;;;;;;;;;13.80;99.90;;;;;;5090250;27;19924;-87
2023/06/15 04:27:53;;;;;;;;;;;13.80;99.90;;;;;;5081330;28;19925;-87
2023/06/15 04:30:24;;;;;;;;;;;13.90;99.90;;;;;;5109669;28;20023;-86
2023/06/15 04:32:57;;;;;;;;;;;13.90;99.90;;;;;;5119079;27;19931;-87
2023/06/15 04:35:24;;;;;;;;;;;13.90;99.90;;;;;;5097626;28;20309;-87
2023/06/15 04:37:51;;;;;;;;;;;13.90;99.90;;;;;;5111372;28;19934;-86
2023/06/15 04:40:20;;;;;;;;;;;13.90;99.90;;;;;;5099258;28;19928;-85
2023/06/15 04:42:45;;;;;;;;;;;14.00;99.90;;;;;;5080030;28;19927;-85
2023/06/15 04:45:11;;;;;;;;;;;14.10;99.90;;;;;;5120541;28;19960;-86
2023/06/15 04:47:37;;;;;;;;;;;14.20;99.90;;;;;;5094700;28;19927;-86
2023/06/15 04:50:05;;;;;;;;;;;12.10;99.90;;;;;;5093269;28;19925;-86
2023/06/15 04:52:31;;;;;;;;;;;14.30;99.90;;;;;;5112883;28;20045;-85
2023/06/15 04:54:56;;;;;;;;;;;14.40;99.90;;;;;;5097680;28;19982;-86
2023/06/15 04:57:22;;;;;;;;;;;14.60;99.90;;;;;;5077711;28;20427;-86
2023/06/15 04:59:47;;;;;;;;;;;14.80;99.90;;;;;;5097979;28;19930;-85
2023/06/15 05:02:13;;;;;;;;;;;15.10;99.90;;;;;;5111319;28;20344;-86
2023/06/15 05:04:39;;;;;;;;;;;15.30;99.90;;;;;;5089449;28;19974;-86
2023/06/15 05:07:04;;;;;;;;;;;15.60;99.90;;;;;;5108039;28;19924;-85
2023/06/15 05:09:30;;;;;;;;;;;15.70;99.90;;;;;;5103440;28;19924;-85
2023/06/15 05:11:57;;;;;;;;;;;15.80;99.90;;;;;;5099778;28;19970;-87
2023/06/15 05:14:22;;;;;;;;;;;14.80;99.90;;;;;;5131278;28;19946;-87
2023/06/15 05:16:48;;;;;;;;;;;16.00;99.90;;;;;;5105338;28;19932;-86
2023/06/15 05:19:16;;;;;;;;;;;16.10;99.90;;;;;;5089234;28;19977;-87
2023/06/15 05:21:44;;;;;;;;;;;16.20;99.90;;;;;;5097162;28;20060;-87
2023/06/15 05:24:11;;;;;;;;;;;15.20;99.90;;;;;;5076998;28;20277;-87
2023/06/15 05:26:36;;;;;;;;;;;16.40;99.90;;;;;;5113774;28;20175;-87
2023/06/15 05:29:02;;;;;;;;;;;16.50;99.90;;;;;;5095731;28;20383;-85
2023/06/15 05:31:28;;;;;;;;;;;16.50;99.90;;;;;;5094601;28;20014;-87
2023/06/15 05:33:53;;;;;;;;;;;16.60;99.90;;;;;;5093608;28;19946;-86
2023/06/15 05:36:19;;;;;;;;;;;16.60;99.90;;;;;;5074718;28;19924;-86
2023/06/15 05:38:45;;;;;;;;;;;16.70;99.90;;;;;;5111890;28;20290;-85
2023/06/15 05:41:10;;;;;;;;;;;16.70;99.90;;;;;;5095782;28;19924;-86
2023/06/15 05:43:36;;;;;;;;;;;16.90;99.90;;;;;;5102357;28;19924;-86
2023/06/15 05:46:02;;;;;;;;;;;16.90;99.90;;;;;;5092234;28;19924;-87
2023/06/15 05:48:27;;;;;;;;;;;16.90;99.90;;;;;;5118779;27;19934;-86
2023/06/15 05:50:53;;;;;;;;;;;17.00;99.90;;;;;;5116013;27;19947;-85
2023/06/15 05:53:18;;;;;;;;;;;17.00;99.90;;;;;;5115717;28;19928;-86
2023/06/15 05:55:44;;;;;;;;;;;17.10;99.90;;;;;;5106303;27;19924;-86
2023/06/15 05:58:09;;;;;;;;;;;17.20;99.90;;;;;;5118670;27;20014;-86
2023/06/15 06:00:35;;;;;;;;;;;17.20;99.90;;;;;;5098019;28;19979;-88
2023/06/15 06:03:01;;;;;;;;;;;17.20;99.90;;;;;;5095346;28;19971;-86
2023/06/15 06:05:26;;;;;;;;;;;17.30;99.90;;;;;;5117226;27;20006;-86
2023/06/15 06:07:52;;;;;;;;;;;17.30;99.90;;;;;;5084024;27;20399;-86
2023/06/15 06:10:18;;;;;;;;;;;17.30;99.90;;;;;;5098366;28;20015;-86
2023/06/15 06:12:44;;;;;;;;;;;17.40;99.90;;;;;;5099471;27;19930;-86
2023/06/15 06:15:09;;;;;;;;;;;17.50;99.90;;;;;;5080248;28;19987;-86
2023/06/15 06:17:35;;;;;;;;;;;17.50;99.90;;;;;;5130195;28;19935;-87
2023/06/15 06:20:01;;;;;;;;;;;17.60;99.90;;;;;;5138169;27;19949;-87
2023/06/15 06:22:27;;;;;;;;;;;17.60;99.90;;;;;;5121627;28;19935;-85
2023/06/15 06:24:52;;;;;;;;;;;17.70;99.90;;;;;;5109984;28;19924;-86
2023/06/15 06:27:18;;;;;;;;;;;17.80;98.60;;;;;;5084505;28;20412;-86
2023/06/15 06:29:44;;;;;;;;;;;17.80;98.20;;;;;;5127208;27;19977;-86
2023/06/15 06:32:10;;;;;;;;;;;17.90;97.90;;;;;;5102503;27;19932;-87
2023/06/15 06:34:35;;;;;;;;;;;18.00;98.20;;;;;;5114670;28;19990;-86
2023/06/15 06:37:04;;;;;;;;;;;18.00;98.00;;;;;;5098845;28;20394;-87
2023/06/15 06:39:31;;;;;;;;;;;18.10;97.30;;;;;;5115880;27;19924;-86
2023/06/15 06:41:56;;;;;;;;;;;18.10;98.20;;;;;;5104562;27;20013;-87
2023/06/15 06:44:22;;;;;;;;;;;18.20;98.50;;;;;;5109619;28;19963;-86
2023/06/15 06:46:48;;;;;;;;;;;18.40;97.50;;;;;;5107526;28;19924;-86
2023/06/15 06:49:13;;;;;;;;;;;18.30;97.80;;;;;;5110110;28;19924;-86
2023/06/15 06:51:39;;;;;;;;;;;18.40;97.20;;;;;;5092416;28;20405;-86
2023/06/15 06:54:05;;;;;;;;;;;18.40;97.10;;;;;;5109819;28;19924;-86
2023/06/15 06:56:30;;;;;;;;;;;18.60;97.20;;;;;;5080590;28;19924;-86
2023/06/15 06:58:56;;;;;;;;;;;18.50;96.90;;;;;;5109431;28;19930;-86
2023/06/15 07:01:25;;;;;;;;;;;18.50;97.60;;;;;;5114026;27;20262;-85
2023/06/15 07:03:50;;;;;;;;;;;18.50;97.00;;;;;;5112880;28;20022;-85
2023/06/15 07:06:16;;;;;;;;;;;18.60;96.30;;;;;;5111917;28;19935;-86
2023/06/15 07:08:42;;;;;;;;;;;18.90;95.70;;;;;;5096595;28;20049;-87
2023/06/15 07:11:07;;;;;;;;;;;18.80;95.40;;;;;;5092788;27;19935;-86
2023/06/15 07:13:33;;;;;;;;;;;18.80;94.80;;;;;;5098089;27;19947;-86
2023/06/15 07:15:59;;;;;;;;;;;18.80;95.70;;;;;;5109271;27;19927;-86
2023/06/15 07:18:25;;;;;;;;;;;18.80;95.20;;;;;;5095743;28;19931;-87
2023/06/15 07:20:54;;;;;;;;;;;18.80;94.50;;;;;;5083474;28;19932;-86
2023/06/15 07:23:25;;;;;;;;;;;18.90;95.40;;;;;;5106263;28;20396;-86
2023/06/15 07:25:52;;;;;;;;;;;18.90;94.50;;;;;;5071928;28;20380;-86
2023/06/15 07:28:18;;;;;;;;;;;19.00;94.40;;;;;;5088168;28;19978;-87
2023/06/15 07:30:44;;;;;;;;;;;19.00;94.80;;;;;;5113872;27;19931;-87
2023/06/15 07:33:10;;;;;;;;;;;19.00;94.80;;;;;;5118944;27;19951;-86
2023/06/15 07:35:36;;;;;;;;;;;19.00;95.10;;;;;;5110973;28;19928;-87
2023/06/15 07:38:02;;;;;;;;;;;19.20;95.00;;;;;;5093084;28;19985;-87
2023/06/15 07:40:27;;;;;;;;;;;19.20;95.00;;;;;;5103417;27;19962;-86
2023/06/15 07:42:53;;;;;;;;;;;19.30;94.70;;;;;;5102088;27;19924;-86
2023/06/15 07:45:18;;;;;;;;;;;19.30;94.50;;;;;;5082925;28;20339;-86
2023/06/15 07:47:44;;;;;;;;;;;19.30;94.10;;;;;;5097721;27;19937;-86
2023/06/15 07:50:13;;;;;;;;;;;19.40;95.00;;;;;;5118176;27;20360;-86
2023/06/15 07:52:38;;;;;;;;;;;17.20;94.30;;;;;;5113653;28;20426;-87
2023/06/15 07:55:04;;;;;;;;;;;19.50;93.10;;;;;;5092835;28;19955;-86
2023/06/15 07:57:30;;;;;;;;;;;19.60;93.50;;;;;;5090293;28;20355;-86
2023/06/15 07:59:57;;;;;;;;;;;21.80;94.60;;;;;;5095827;28;19977;-86
2023/06/15 08:02:23;;;;;;;;;;;19.70;92.90;;;;;;5112377;28;19927;-86
2023/06/15 08:04:48;;;;;;;;;;;19.80;93.00;;;;;;5095808;28;19923;-89
2023/06/15 08:07:14;;;;;;;;;;;19.90;92.60;;;;;;5076261;28;19931;-87
2023/06/15 08:09:40;;;;;;;;;;;20.00;92.60;;;;;;5089963;28;20041;-87
2023/06/15 08:12:05;;;;;;;;;;;20.00;92.30;;;;;;5092641;28;19980;-87
2023/06/15 08:14:31;;;;;;;;;;;20.10;89.90;;;;;;5096619;28;19946;-86
2023/06/15 08:16:57;;;;;;;;;;;20.10;92.40;;;;;;5092005;28;19928;-86
2023/06/15 08:19:22;;;;;;;;;;;20.20;91.80;;;;;;5106384;28;19947;-87
2023/06/15 08:21:48;;;;;;;;;;;20.30;88.00;;;;;;5113061;28;19923;-86
2023/06/15 08:24:13;;;;;;;;;;;20.30;91.30;;;;;;5115932;27;19923;-86
2023/06/15 08:26:40;;;;;;;;;;;20.40;89.20;;;;;;5109902;27;19930;-86
2023/06/15 08:29:07;;;;;;;;;;;20.50;90.20;;;;;;5095546;28;19934;-86
2023/06/15 08:31:34;;;;;;;;;;;20.60;87.90;;;;;;5095890;28;19924;-86
2023/06/15 08:33:59;;;;;;;;;;;20.70;86.90;;;;;;5091059;28;19931;-86
2023/06/15 08:36:25;;;;;;;;;;;20.80;87.30;;;;;;5076627;28;19928;-86
2023/06/15 08:38:50;;;;;;;;;;;20.90;84.50;;;;;;5101792;28;20465;-86
2023/06/15 08:41:17;;;;;;;;;;;21.00;82.10;;;;;;5092145;28;19932;-86
2023/06/15 08:43:44;;;;;;;;;;;21.10;83.20;;;;;;5118998;28;20406;-86
2023/06/15 08:46:11;;;;;;;;;;;21.10;82.00;;;;;;5092451;28;19968;-86
2023/06/15 08:48:37;;;;;;;;;;;21.20;84.30;;;;;;5087097;28;19931;-86
2023/06/15 08:51:04;;;;;;;;;;;21.20;83.70;;;;;;5095775;28;19923;-86
2023/06/15 08:53:30;;;;;;;;;;;21.40;83.80;;;;;;5095593;28;19958;-86
2023/06/15 08:55:55;;;;;;;;;;;21.50;82.50;;;;;;5092321;28;20005;-86
2023/06/15 08:58:21;;;;;;;;;;;21.60;85.10;;;;;;5094360;28;20391;-87
2023/06/15 09:00:46;;;;;;;;;;;21.70;81.80;;;;;;5112245;28;20377;-87
2023/06/15 09:03:13;;;;;;;;;;;21.80;79.90;;;;;;5111409;28;20364;-86
2023/06/15 09:05:39;;;;;;;;;;;21.90;79.80;;;;;;5115383;28;20367;-85
2023/06/15 09:08:05;;;;;;;;;;;21.90;75.40;;;;;;5112306;28;19924;-85
2023/06/15 09:10:34;;;;;;;;;;;22.00;75.60;;;;;;5112837;28;19924;-86
2023/06/15 09:13:00;;;;;;;;;;;22.00;76.20;;;;;;5083284;28;19928;-86
2023/06/15 09:15:27;;;;;;;;;;;22.00;77.30;;;;;;5112736;28;19928;-86
2023/06/15 09:17:57;;;;;;;;;;;22.10;76.70;;;;;;5108058;28;19924;-86
2023/06/15 09:20:24;;;;;;;;;;;22.20;78.20;;;;;;5113850;27;20359;-87
2023/06/15 09:22:50;;;;;;;;;;;22.30;77.60;;;;;;5090397;28;19924;-87
2023/06/15 09:25:20;;;;;;;;;;;22.40;73.90;;;;;;5095809;28;20280;-87
2023/06/15 09:27:52;;;;;;;;;;;22.40;70.90;;;;;;5095017;28;19928;-86
2023/06/15 09:30:18;;;;;;;;;;;22.50;74.60;;;;;;5086939;28;20387;-86
2023/06/15 09:32:43;;;;;;;;;;;22.70;73.80;;;;;;5115566;28;19971;-86
2023/06/15 09:35:09;;;;;;;;;;;22.70;73.70;;;;;;5103640;27;19946;-86
2023/06/15 09:37:35;;;;;;;;;;;22.80;70.80;;;;;;5098988;28;19947;-87
2023/06/15 09:40:06;;;;;;;;;;;22.90;71.20;;;;;;5115275;28;19999;-86
2023/06/15 09:42:32;;;;;;;;;;;22.90;73.90;;;;;;5114050;28;19924;-86
2023/06/15 09:45:03;;;;;;;;;;;23.00;70.50;;;;;;5105615;28;20371;-85
2023/06/15 09:47:29;;;;;;;;;;;23.00;70.10;;;;;;5136323;27;19949;-87
2023/06/15 09:49:55;;;;;;;;;;;23.10;70.00;;;;;;5131538;27;19922;-86
2023/06/15 09:52:21;;;;;;;;;;;23.10;66.20;;;;;;5136032;28;19924;-87
2023/06/15 09:54:47;;;;;;;;;;;23.20;68.80;;;;;;5128351;27;20033;-85
2023/06/15 09:57:14;;;;;;;;;;;23.30;70.70;;;;;;5095179;28;19924;-86
2023/06/15 09:59:39;;;;;;;;;;;23.40;67.80;;;;;;5107069;28;19931;-85
2023/06/15 10:02:10;;;;;;;;;;;23.50;65.50;;;;;;5118617;28;19927;-85
2023/06/15 10:04:39;;;;;;;;;;;23.50;65.60;;;;;;5093920;27;20299;-86
2023/06/15 10:07:05;;;;;;;;;;;23.50;65.70;;;;;;5122598;27;19938;-86
2023/06/15 10:09:44;;;;;;;;;;;23.60;65.00;;;;;;5122123;27;19924;-86
2023/06/15 10:12:18;;;;;;;;;;;23.70;62.90;;;;;;5108494;27;20433;-86
2023/06/15 10:14:44;;;;;;;;;;;23.80;63.80;;;;;;5117803;27;20007;-87
2023/06/15 10:17:10;;;;;;;;;;;23.90;65.30;;;;;;5107457;28;19964;-86
2023/06/15 10:19:40;;;;;;;;;;;24.00;63.90;;;;;;5115162;27;20441;-86
2023/06/15 10:22:08;;;;;;;;;;;23.90;61.40;;;;;;5109544;27;19936;-86
2023/06/15 10:24:34;;;;;;;;;;;24.00;63.20;;;;;;5120849;27;20423;-86
2023/06/15 10:27:00;;;;;;;;;;;24.00;62.50;;;;;;5112083;28;19924;-86
2023/06/15 10:29:36;;;;;;;;;;;24.10;62.20;;;;;;5112522;27;19974;-86
2023/06/15 10:32:28;;;;;;;;;;;24.00;62.80;;;;;;5095100;28;19932;-86
2023/06/15 10:35:01;;;;;;;;;;;24.10;62.40;;;;;;5092553;28;19952;-87
2023/06/15 10:37:32;;;;;;;;;;;24.00;60.60;;;;;;5107529;28;19924;-86
2023/06/15 10:40:05;;;;;;;;;;;24.30;63.00;;;;;;5106643;28;19931;-86
2023/06/15 10:42:41;;;;;;;;;;;24.40;62.30;;;;;;5110328;27;19982;-87
2023/06/15 10:45:26;;;;;;;;;;;25.40;62.90;;;;;;5115339;28;20428;-86
2023/06/15 10:47:51;;;;;;;;;;;24.60;61.80;;;;;;5098837;27;19930;-87
2023/06/15 10:50:17;;;;;;;;;;;24.70;61.70;;;;;;5094973;28;19924;-86
2023/06/15 10:52:43;;;;;;;;;;;24.80;61.00;;;;;;5111149;28;20048;-86
2023/06/15 10:55:09;;;;;;;;;;;24.90;57.80;;;;;;5123943;27;20361;-86
2023/06/15 10:57:35;;;;;;;;;;;24.90;57.80;;;;;;5121854;27;19924;-86
2023/06/15 11:00:04;;;;;;;;;;;25.20;58.80;;;;;;5110870;28;19928;-87
2023/06/15 11:02:31;;;;;;;;;;;24.90;58.60;;;;;;5097593;28;19924;-86
2023/06/15 11:05:09;;;;;;;;;;;24.90;59.90;;;;;;5100573;28;19954;-87
2023/06/15 11:07:36;;;;;;;;;;;24.90;57.80;;;;;;5076980;28;19924;-87
2023/06/15 11:10:22;;;;;;;;;;;24.90;60.80;;;;;;5093984;28;19924;-86
2023/06/15 11:12:51;;;;;;;;;;;25.10;54.60;;;;;;5107666;28;19924;-86
2023/06/15 11:15:17;;;;;;;;;;;25.20;53.10;;;;;;5093113;28;19924;-86
2023/06/15 11:17:52;;;;;;;;;;;25.20;54.90;;;;;;5084865;28;19931;-86
2023/06/15 11:20:37;;;;;;;;;;;25.30;52.00;;;;;;5097484;28;20010;-87
2023/06/15 11:23:04;;;;;;;;;;;25.40;54.00;;;;;;5111807;28;20363;-87
2023/06/15 11:25:30;;;;;;;;;;;25.40;51.10;;;;;;5114164;28;19924;-86
2023/06/15 11:27:57;;;;;;;;;;;25.40;51.50;;;;;;5112585;27;20227;-87
2023/06/15 11:30:25;;;;;;;;;;;25.30;52.80;;;;;;5105667;28;19924;-87
2023/06/15 11:32:51;;;;;;;;;;;25.30;52.90;;;;;;5095816;28;20328;-87
2023/06/15 11:35:18;;;;;;;;;;;25.20;52.60;;;;;;5085545;28;19923;-86
2023/06/15 11:37:44;;;;;;;;;;;25.20;54.80;;;;;;5113045;28;19985;-86
2023/06/15 11:40:10;;;;;;;;;;;25.30;51.20;;;;;;5109341;27;20333;-88
2023/06/15 11:42:36;;;;;;;;;;;25.40;51.20;;;;;;5098812;27;20016;-86
2023/06/15 11:45:03;;;;;;;;;;;25.50;54.70;;;;;;5092216;28;20394;-87
2023/06/15 11:47:33;;;;;;;;;;;25.70;52.10;;;;;;5108275;27;19927;-86
2023/06/15 11:49:59;;;;;;;;;;;25.70;54.10;;;;;;5092952;28;20286;-86
2023/06/15 11:52:24;;;;;;;;;;;25.80;54.40;;;;;;5101286;27;20010;-87
2023/06/15 11:54:50;;;;;;;;;;;25.90;54.20;;;;;;5097773;28;19939;-87
2023/06/15 11:57:16;;;;;;;;;;;25.90;52.70;;;;;;5114052;27;20030;-85
2023/06/15 11:59:41;;;;;;;;;;;25.80;53.60;;;;;;5103537;28;19927;-86
2023/06/15 12:02:07;;;;;;;;;;;25.80;52.70;;;;;;5112865;28;19924;-87
2023/06/15 12:04:33;;;;;;;;;;;25.80;53.30;;;;;;5106282;28;19924;-86
2023/06/15 12:07:01;;;;;;;;;;;25.80;54.30;;;;;;5111960;28;20259;-87
2023/06/15 12:09:26;;;;;;;;;;;25.80;55.20;;;;;;5112737;28;20004;-87
2023/06/15 12:11:52;;;;;;;;;;;25.90;55.60;;;;;;5096311;28;20083;-87
2023/06/15 12:14:21;;;;;;;;;;;26.00;55.10;;;;;;5112767;28;19928;-87
2023/06/15 12:16:53;;;;;;;;;;;26.10;54.60;;;;;;5079866;27;19924;-87
2023/06/15 12:19:19;;;;;;;;;;;26.20;53.50;;;;;;5104671;28;19947;-86
2023/06/15 12:21:46;;;;;;;;;;;26.10;53.60;;;;;;5074061;28;19963;-86
2023/06/15 12:24:15;;;;;;;;;;;26.10;53.90;;;;;;5112852;28;19932;-86
2023/06/15 12:26:41;;;;;;;;;;;26.00;51.80;;;;;;5101739;28;20348;-87
2023/06/15 12:29:14;;;;;;;;;;;26.20;53.70;;;;;;5113013;28;19923;-87
2023/06/15 12:31:43;;;;;;;;;;;26.30;54.10;;;;;;5121880;27;19923;-87
2023/06/15 12:34:09;;;;;;;;;;;26.50;53.40;;;;;;5098446;28;19931;-87
2023/06/15 12:36:38;;;;;;;;;;;26.50;52.30;;;;;;5085961;28;20373;-87
2023/06/15 12:39:10;;;;;;;;;;;26.40;51.40;;;;;;5096343;28;19928;-87
2023/06/15 12:41:42;;;;;;;;;;;26.60;51.20;;;;;;5112477;28;19935;-87
2023/06/15 12:44:08;;;;;;;;;;;26.70;51.80;;;;;;5100073;28;20022;-87
2023/06/15 12:46:36;;;;;;;;;;;26.70;50.60;;;;;;5112554;28;20011;-87
2023/06/15 12:49:02;;;;;;;;;;;26.50;50.80;;;;;;5091157;28;19930;-86
2023/06/15 12:51:31;;;;;;;;;;;26.60;51.20;;;;;;5109701;28;19925;-87
2023/06/15 12:53:57;;;;;;;;;;;26.60;51.50;;;;;;5112643;28;19924;-87
2023/06/15 12:56:28;;;;;;;;;;;26.60;51.20;;;;;;5115510;28;20386;-87
2023/06/15 12:58:54;;;;;;;;;;;26.60;51.10;;;;;;5113551;28;19924;-86
2023/06/15 13:01:21;;;;;;;;;;;26.60;50.80;;;;;;5121815;27;19992;-87
2023/06/15 13:03:47;;;;;;;;;;;26.90;49.90;;;;;;5116083;28;20362;-87
2023/06/15 13:06:14;;;;;;;;;;;26.50;49.60;;;;;;5121730;28;19931;-87
2023/06/15 13:08:40;;;;;;;;;;;26.70;51.60;;;;;;5112564;28;19924;-86
2023/06/15 13:11:06;;;;;;;;;;;26.80;49.80;;;;;;5133522;28;20405;-86
2023/06/15 13:13:31;;;;;;;;;;;26.80;49.60;;;;;;5122839;27;19930;-87
2023/06/15 13:15:57;;;;;;;;;;;26.60;50.30;;;;;;5119160;27;19954;-87
2023/06/15 13:18:25;;;;;;;;;;;26.70;50.80;;;;;;5122506;27;19942;-87
2023/06/15 13:20:50;;;;;;;;;;;26.70;50.50;;;;;;5119002;28;19924;-87
2023/06/15 13:23:16;;;;;;;;;;;26.90;50.60;;;;;;5120892;28;19935;-85
2023/06/15 13:25:42;;;;;;;;;;;26.80;50.20;;;;;;5083074;28;19927;-87
2023/06/15 13:28:07;;;;;;;;;;;26.70;50.30;;;;;;5099729;28;19992;-87
2023/06/15 13:30:33;;;;;;;;;;;26.70;50.20;;;;;;5099646;28;19930;-86
2023/06/15 13:32:59;;;;;;;;;;;26.70;52.40;;;;;;5110835;27;19967;-86
2023/06/15 13:35:25;;;;;;;;;;;26.70;50.00;;;;;;5096889;28;19973;-87
2023/06/15 13:37:50;;;;;;;;;;;26.80;50.50;;;;;;5106367;28;19927;-85
2023/06/15 13:40:16;;;;;;;;;;;26.90;51.00;;;;;;5114698;28;19928;-87
2023/06/15 13:42:42;;;;;;;;;;;26.90;52.00;;;;;;5065149;28;19927;-86
2023/06/15 13:45:16;;;;;;;;;;;26.90;52.00;;;;;;5111119;28;20348;-87
2023/06/15 13:47:42;;;;;;;;;;;26.90;53.80;;;;;;5113978;27;19985;-85
2023/06/15 13:50:09;;;;;;;;;;;26.80;54.00;;;;;;5117387;27;19994;-86
2023/06/15 13:52:36;;;;;;;;;;;26.80;53.70;;;;;;5076950;28;19924;-85
2023/06/15 13:55:02;;;;;;;;;;;26.80;53.80;;;;;;5112475;28;19931;-87
2023/06/15 13:57:28;;;;;;;;;;;26.60;54.70;;;;;;5096680;28;19924;-86
2023/06/15 13:59:54;;;;;;;;;;;26.70;56.00;;;;;;5098391;28;19923;-88
2023/06/15 14:02:19;;;;;;;;;;;26.90;54.90;;;;;;5092575;27;19987;-88
2023/06/15 14:04:45;;;;;;;;;;;26.70;55.40;;;;;;5111435;27;20239;-87
2023/06/15 14:07:11;;;;;;;;;;;26.70;55.90;;;;;;5100737;28;19924;-87
2023/06/15 14:09:37;;;;;;;;;;;26.70;54.60;;;;;;5097377;28;20378;-86
2023/06/15 14:12:03;;;;;;;;;;;26.80;54.30;;;;;;5095862;28;20355;-87
2023/06/15 14:14:30;;;;;;;;;;;26.80;54.40;;;;;;5113137;27;19927;-87